Time;durP1;ratioP1;P1;durP2;ratioP2;P2;SDS_P1;SDS_P2;PMS_P1;PMS_P2;Temp;Humidity;BMP_temperature;BMP_pressure;BME280_temperature;BME280_humidity;BME280_pressure;Samples;Min_cycle;Max_cycle;Signal;HPM_P1;HPM_P2
2022/11/17 00:01:17;;;;;;;25.88;21.55;;;;;;;9.64;88.75;93736.97;5077708;28;20220;-71
2022/11/17 00:03:47;;;;;;;25.42;20.27;;;;;;;9.68;89.01;93734.25;5077418;28;20197;-72
2022/11/17 00:06:13;;;;;;;21.98;19.60;;;;;;;9.68;88.75;93740.53;5077471;28;20205;-71
2022/11/17 00:08:41;;;;;;;23.08;19.13;;;;;;;9.66;88.84;93740.13;5077384;28;20200;-71
2022/11/17 00:11:08;;;;;;;22.30;19.42;;;;;;;9.66;88.96;93734.63;5077758;28;20197;-71
2022/11/17 00:16:21;;;;;;;22.27;19.17;;;;;;;9.70;88.82;93723.66;5077389;28;20284;-72
2022/11/17 00:21:34;;;;;;;23.10;18.75;;;;;;;9.69;88.55;93724.81;5080306;28;20646;-71
2022/11/17 00:24:21;;;;;;;21.33;18.33;;;;;;;9.70;88.82;93720.91;5080787;28;20197;-71
2022/11/17 00:27:01;;;;;;;22.95;18.38;;;;;;;9.70;89.08;93718.16;5080421;28;20196;-71
2022/11/17 00:29:28;;;;;;;22.75;18.67;;;;;;;9.67;88.62;93716.94;5080619;28;20261;-71
2022/11/17 00:34:47;;;;;;;22.63;18.25;;;;;;;9.63;89.61;93733.41;5097934;28;20180;-71
2022/11/17 00:37:15;;;;;;;23.27;18.05;;;;;;;9.63;89.27;93730.66;5080451;28;20197;-72
2022/11/17 00:39:45;;;;;;;22.08;18.52;;;;;;;9.64;89.42;93718.47;5097984;28;20205;-72
2022/11/17 00:42:15;;;;;;;23.77;18.30;;;;;;;9.67;89.04;93718.91;5080845;28;20269;-72
2022/11/17 00:44:42;;;;;;;24.10;17.48;;;;;;;9.68;89.13;93715.75;5097975;28;20191;-72
2022/11/17 00:47:09;;;;;;;20.23;17.85;;;;;;;9.67;88.93;93708.66;5098688;28;20250;-72
2022/11/17 00:49:36;;;;;;;21.23;17.73;;;;;;;9.67;88.96;93710.63;5097374;28;20195;-72
2022/11/17 00:52:05;;;;;;;18.98;16.75;;;;;;;9.70;89.04;93716.19;5080031;28;20255;-72
2022/11/17 00:54:32;;;;;;;20.20;17.50;;;;;;;9.71;88.96;93714.22;5079753;28;20621;-71
2022/11/17 00:56:59;;;;;;;19.02;16.95;;;;;;;9.68;89.17;93712.22;5097342;28;20184;-72
2022/11/17 00:59:26;;;;;;;20.95;17.17;;;;;;;9.65;89.34;93698.03;5080325;28;20231;-71
2022/11/17 01:01:54;;;;;;;19.80;15.70;;;;;;;9.65;89.49;93697.25;5079927;28;20203;-71
2022/11/17 01:04:22;;;;;;;21.25;16.88;;;;;;;9.67;89.32;93691.38;5080113;28;20196;-71
2022/11/17 01:06:49;;;;;;;21.77;19.50;;;;;;;9.69;89.13;93689.00;5079684;28;20224;-72
2022/11/17 01:09:19;;;;;;;28.92;26.08;;;;;;;9.69;89.27;93698.06;5079877;28;20257;-72
2022/11/17 01:11:47;;;;;;;36.92;33.33;;;;;;;9.68;88.90;93699.22;5097391;28;20188;-72
2022/11/17 01:14:16;;;;;;;35.72;32.08;;;;;;;9.68;88.74;93695.69;5079596;28;20200;-72
2022/11/17 01:16:45;;;;;;;32.58;29.33;;;;;;;9.71;88.68;93692.19;5079152;28;20242;-71
2022/11/17 01:19:13;;;;;;;34.72;31.13;;;;;;;9.71;88.53;93698.47;5079901;28;20196;-72
2022/11/17 01:21:41;;;;;;;35.70;32.33;;;;;;;9.71;88.61;93689.44;5097386;28;20196;-71
2022/11/17 01:24:09;;;;;;;36.58;32.78;;;;;;;9.68;88.46;93688.22;5079442;28;20200;-71
2022/11/17 01:26:40;;;;;;;32.85;29.45;;;;;;;9.66;88.48;93676.81;5097060;28;20189;-71
2022/11/17 01:29:07;;;;;;;30.85;27.65;;;;;;;9.68;88.79;93679.97;5097548;28;20186;-71
2022/11/17 01:31:36;;;;;;;30.27;27.08;;;;;;;9.69;88.59;93683.50;5079068;28;20192;-71
2022/11/17 01:34:03;;;;;;;26.05;22.98;;;;;;;9.65;88.71;93673.25;5096916;28;20200;-71
2022/11/17 01:37:17;;;;;;;26.77;23.95;;;;;;;9.64;88.79;93663.41;5096907;28;20192;-71
2022/11/17 01:39:25;;;;;;;26.10;23.40;;;;;;;9.65;88.69;93673.25;5078999;28;20203;-72
2022/11/17 01:42:06;;;;;;;21.98;19.67;;;;;;;9.67;88.36;93663.84;5097016;28;20250;-71
2022/11/17 01:45:02;;;;;;;21.85;18.92;;;;;;;9.69;88.16;93672.50;5078809;28;20203;-71
2022/11/17 01:47:41;;;;;;;21.27;18.38;;;;;;;9.68;87.96;93660.69;5033540;28;20207;-71
2022/11/17 01:50:22;;;;;;;20.77;18.58;;;;;;;9.68;88.12;93657.16;5078715;28;20200;-71
2022/11/17 01:52:54;;;;;;;20.42;17.80;;;;;;;9.69;88.26;93658.72;5078442;28;20207;-71
2022/11/17 01:55:22;;;;;;;18.98;16.98;;;;;;;9.67;88.18;93659.13;5078696;28;20196;-71
2022/11/17 01:58:06;;;;;;;20.35;17.00;;;;;;;9.66;88.10;93660.31;5079078;28;20197;-71
2022/11/17 02:00:38;;;;;;;18.27;15.73;;;;;;;9.67;88.26;93658.34;5078777;28;20251;-72
2022/11/17 02:03:06;;;;;;;18.30;14.18;;;;;;;9.68;88.02;93637.88;5077978;28;20212;-72
2022/11/17 02:05:47;;;;;;;16.48;14.77;;;;;;;9.67;87.96;93645.34;5078969;28;20214;-72
2022/11/17 02:08:22;;;;;;;17.52;15.10;;;;;;;9.66;87.95;93646.53;5096346;28;20199;-72
2022/11/17 02:10:50;;;;;;;17.33;15.05;;;;;;;9.66;88.06;93641.03;5096306;28;20196;-72
2022/11/17 02:13:20;;;;;;;15.95;14.25;;;;;;;9.68;87.65;93651.66;5078427;28;20199;-72
2022/11/17 02:15:51;;;;;;;17.17;14.85;;;;;;;9.66;87.76;93652.03;5095955;28;20589;-72
2022/11/17 02:18:18;;;;;;;17.65;15.50;;;;;;;9.69;87.72;93653.22;5074780;28;20237;-72
2022/11/17 02:21:02;;;;;;;16.50;14.38;;;;;;;9.69;87.63;93651.25;5074821;28;20228;-71
2022/11/17 02:24:15;;;;;;;16.65;14.85;;;;;;;9.70;87.37;93661.13;5075852;28;20226;-71
2022/11/17 02:27:34;;;;;;;17.33;15.50;;;;;;;9.72;87.39;93639.47;5075018;28;20219;-72
2022/11/17 02:30:05;;;;;;;16.08;14.25;;;;;;;9.74;87.20;93642.66;5076035;28;20189;-71
2022/11/17 02:32:42;;;;;;;16.58;14.38;;;;;;;9.74;87.05;93644.63;5075447;28;20199;-71
2022/11/17 02:35:17;;;;;;;17.05;14.40;;;;;;;9.73;87.25;93649.34;5074385;28;20201;-71
2022/11/17 02:37:57;;;;;;;15.68;14.07;;;;;;;9.70;87.06;93641.06;5074885;28;20203;-71
2022/11/17 02:40:28;;;;;;;15.65;13.43;;;;;;;9.69;87.06;93634.72;5074530;28;20307;-71
2022/11/17 02:45:53;;;;;;;14.75;13.25;;;;;;;9.73;87.22;93618.25;5074159;28;20651;-71
2022/11/17 02:48:26;;;;;;;14.43;12.88;;;;;;;9.74;87.28;93617.09;5074585;28;20193;-71
2022/11/17 02:50:57;;;;;;;13.93;12.45;;;;;;;9.75;87.33;93613.16;5074998;28;20201;-71
2022/11/17 02:53:28;;;;;;;16.08;13.90;;;;;;;9.76;87.37;93606.47;5075025;28;20203;-72
2022/11/17 02:56:02;;;;;;;13.65;12.25;;;;;;;9.71;87.43;93620.59;5074462;28;20209;-72
2022/11/17 02:58:32;;;;;;;14.43;12.75;;;;;;;9.73;87.39;93621.81;5074921;28;20189;-71
2022/11/17 03:01:14;;;;;;;13.68;12.30;;;;;;;9.75;87.07;93624.94;5074885;28;20512;-72
2022/11/17 03:03:54;;;;;;;14.00;11.77;;;;;;;9.77;86.72;93614.38;5075290;28;20215;-72
2022/11/17 03:06:29;;;;;;;13.52;12.13;;;;;;;9.79;86.88;93628.53;5074399;28;20204;-71
2022/11/17 03:09:06;;;;;;;14.10;12.68;;;;;;;9.77;86.77;93636.38;5074128;28;20200;-71
2022/11/17 03:11:38;;;;;;;13.35;11.95;;;;;;;9.76;87.05;93612.75;5075172;28;20192;-72
2022/11/17 03:14:09;;;;;;;13.88;11.63;;;;;;;9.77;87.14;93610.81;5074271;28;20219;-72
2022/11/17 03:16:40;;;;;;;12.23;11.00;;;;;;;9.76;87.02;93606.47;5075393;28;20204;-72
2022/11/17 03:19:19;;;;;;;12.10;10.88;;;;;;;9.77;86.68;93616.31;5077335;28;20624;-72
2022/11/17 03:21:51;;;;;;;12.18;10.90;;;;;;;9.78;87.00;93617.91;5077795;28;20602;-72
2022/11/17 03:24:31;;;;;;;11.38;10.27;;;;;;;9.77;86.95;93627.34;5094950;28;20181;-72
2022/11/17 03:27:04;;;;;;;12.52;11.23;;;;;;;9.77;86.72;93621.84;5077407;28;20327;-72
2022/11/17 03:29:44;;;;;;;13.55;10.90;;;;;;;9.77;87.30;93625.38;5094946;28;20527;-72
2022/11/17 03:32:15;;;;;;;12.30;10.85;;;;;;;9.79;87.24;93624.97;5095008;28;20239;-71
2022/11/17 03:34:46;;;;;;;12.57;10.77;;;;;;;9.81;87.30;93630.91;5077369;28;20287;-72
2022/11/17 03:37:16;;;;;;;12.70;11.23;;;;;;;9.81;87.54;93648.22;5095130;28;20181;-72
2022/11/17 03:39:50;;;;;;;12.48;11.15;;;;;;;9.84;87.21;93647.44;5095111;28;20196;-72
2022/11/17 03:42:21;;;;;;;13.10;10.50;;;;;;;9.85;86.98;93638.00;5095179;28;20218;-72
2022/11/17 03:44:53;;;;;;;13.23;11.43;;;;;;;9.84;87.31;93644.69;5095042;28;20199;-71
2022/11/17 03:47:24;;;;;;;13.95;11.45;;;;;;;9.85;87.68;93643.53;5094970;28;20593;-71
2022/11/17 03:49:58;;;;;;;12.30;11.00;;;;;;;9.85;88.06;93627.00;5095024;28;20188;-72
2022/11/17 03:52:28;;;;;;;11.93;10.73;;;;;;;9.85;88.16;93615.97;5095052;28;20196;-72
2022/11/17 03:54:57;;;;;;;13.93;11.93;;;;;;;9.84;88.39;93616.34;5077331;28;20211;-71
2022/11/17 03:57:28;;;;;;;13.35;12.00;;;;;;;9.83;88.59;93615.56;5077748;28;20215;-71
2022/11/17 04:00:12;;;;;;;14.23;12.73;;;;;;;9.80;88.97;93619.09;5094920;28;20193;-71
2022/11/17 04:02:41;;;;;;;14.20;12.05;;;;;;;9.81;88.89;93617.13;5094915;28;20192;-71
2022/11/17 04:05:09;;;;;;;13.40;12.10;;;;;;;9.80;88.99;93627.38;5094933;28;20215;-71
2022/11/17 04:07:38;;;;;;;12.63;11.32;;;;;;;9.78;88.74;93606.88;5077549;28;20219;-71
2022/11/17 04:10:12;;;;;;;13.32;11.93;;;;;;;9.81;88.74;93606.13;5094540;28;20578;-71
2022/11/17 04:18:14;;;;;;;14.75;13.07;;;;;;;9.77;88.75;93594.31;5075204;28;20228;-71
2022/11/17 04:20:45;;;;;;;13.27;11.98;;;;;;;9.76;88.92;93587.97;5076101;28;20286;-71
2022/11/17 04:23:16;;;;;;;14.05;12.65;;;;;;;9.76;88.87;93576.19;5075843;28;20196;-71
2022/11/17 04:28:40;;;;;;;14.43;13.00;;;;;;;9.73;88.98;93588.78;5050269;28;20207;-71
2022/11/17 04:31:15;;;;;;;13.60;12.20;;;;;;;9.72;88.98;93587.16;5079322;28;20241;-71
2022/11/17 04:33:44;;;;;;;14.10;12.60;;;;;;;9.71;89.02;93584.81;5078431;28;20192;-71
2022/11/17 04:36:14;;;;;;;13.38;12.02;;;;;;;9.72;89.21;93589.91;5079191;28;20200;-71
2022/11/17 04:38:42;;;;;;;12.63;11.27;;;;;;;9.73;89.24;93588.78;5077820;28;20197;-72
2022/11/17 04:43:59;;;;;;;12.75;11.45;;;;;;;9.73;89.07;93580.50;5079851;28;20235;-71
2022/11/17 04:46:30;;;;;;;13.00;11.60;;;;;;;9.70;89.29;93589.53;5079549;28;20202;-71
2022/11/17 04:48:58;;;;;;;13.25;11.93;;;;;;;9.70;89.37;93566.72;5078438;28;20250;-71
2022/11/17 04:51:28;;;;;;;13.52;12.00;;;;;;;9.69;89.47;93571.41;5079129;28;20550;-71
2022/11/17 04:53:56;;;;;;;13.82;12.25;;;;;;;9.69;90.02;93570.63;5079482;28;20182;-71
2022/11/17 04:56:25;;;;;;;15.00;12.60;;;;;;;9.70;89.56;93573.00;5078757;28;20193;-71
2022/11/17 04:58:54;;;;;;;13.77;11.57;;;;;;;9.59;90.55;93550.91;5078615;28;20182;-72
2022/11/17 05:01:22;;;;;;;15.77;13.15;;;;;;;9.53;90.62;93574.47;5078914;28;20227;-71
2022/11/17 05:03:53;;;;;;;12.45;11.15;;;;;;;9.49;91.40;93559.88;5077358;28;20648;-71
2022/11/17 05:06:24;;;;;;;12.95;11.57;;;;;;;9.43;92.19;93558.66;5077826;28;20208;-72
2022/11/17 05:08:54;;;;;;;13.55;11.55;;;;;;;9.46;91.82;93554.34;5077058;28;20254;-72
2022/11/17 05:14:12;;;;;;;13.07;11.68;;;;;;;9.50;91.80;93541.41;5076505;28;20217;-72
2022/11/17 05:19:33;;;;;;;14.05;12.43;;;;;;;9.59;91.56;93561.94;5091425;28;20221;-72
2022/11/17 05:22:02;;;;;;;14.43;13.00;;;;;;;9.60;91.32;93547.00;5079982;28;20437;-71
2022/11/17 05:24:29;;;;;;;13.80;12.35;;;;;;;9.63;91.36;93556.44;5079220;28;20207;-71
2022/11/17 05:26:57;;;;;;;15.85;14.27;;;;;;;9.67;90.92;93556.47;5079394;28;20192;-72
2022/11/17 05:29:25;;;;;;;15.45;13.85;;;;;;;9.65;91.04;93546.63;5079396;28;20200;-70
2022/11/17 05:31:53;;;;;;;15.18;13.43;;;;;;;9.65;91.09;93535.59;5097264;28;20180;-71
2022/11/17 05:34:21;;;;;;;14.88;13.30;;;;;;;9.67;91.01;93537.19;5079322;28;20192;-71
2022/11/17 05:36:50;;;;;;;13.57;12.18;;;;;;;9.65;90.87;93541.09;5096928;28;20184;-71
2022/11/17 05:39:22;;;;;;;15.95;14.10;;;;;;;9.67;91.02;93549.00;5079891;28;20192;-72
2022/11/17 05:41:50;;;;;;;15.70;14.02;;;;;;;9.65;91.05;93560.38;5097201;28;20216;-71
2022/11/17 05:44:19;;;;;;;16.65;14.10;;;;;;;9.65;91.29;93568.63;5079042;28;20212;-70
2022/11/17 05:46:47;;;;;;;15.23;13.30;;;;;;;9.65;91.01;93554.09;5079188;28;20197;-70
2022/11/17 05:49:15;;;;;;;15.68;13.07;;;;;;;9.64;91.13;93555.28;5096821;28;20249;-70
2022/11/17 05:51:44;;;;;;;13.88;12.48;;;;;;;9.65;91.21;93552.13;5079075;28;20208;-70
2022/11/17 05:54:13;;;;;;;13.70;12.25;;;;;;;9.65;91.12;93560.38;5078902;28;20207;-70
2022/11/17 05:56:44;;;;;;;13.05;11.82;;;;;;;9.68;90.97;93564.34;5096540;28;20196;-70
2022/11/17 05:59:18;;;;;;;13.07;11.40;;;;;;;9.67;91.13;93554.50;5096644;28;20253;-70
2022/11/17 06:01:50;;;;;;;12.32;11.13;;;;;;;9.68;91.12;93553.31;5096793;28;20204;-70
2022/11/17 06:04:19;;;;;;;12.57;11.18;;;;;;;9.69;90.89;93545.84;5078702;28;20200;-71
2022/11/17 06:06:48;;;;;;;13.43;12.13;;;;;;;9.69;91.22;93545.84;5096460;28;20199;-71
2022/11/17 06:09:18;;;;;;;15.90;14.43;;;;;;;9.70;91.31;93555.72;5078386;28;20541;-71
2022/11/17 06:11:46;;;;;;;22.75;20.58;;;;;;;9.71;91.21;93558.06;5096422;28;20180;-71
2022/11/17 06:14:14;;;;;;;23.25;20.85;;;;;;;9.72;91.30;93576.16;5096126;28;20195;-71
2022/11/17 06:16:44;;;;;;;22.17;19.92;;;;;;;9.72;91.22;93589.91;5095989;28;20181;-71
2022/11/17 06:19:16;;;;;;;16.83;15.05;;;;;;;9.71;91.21;93584.81;5079076;28;20215;-71
2022/11/17 06:21:43;;;;;;;15.15;13.75;;;;;;;9.71;91.49;93585.59;5078011;28;20215;-71
2022/11/17 06:24:10;;;;;;;13.85;12.45;;;;;;;9.73;91.47;93598.97;5078366;28;20208;-71
2022/11/17 06:26:45;;;;;;;13.05;11.85;;;;;;;9.70;91.33;93614.31;5077925;28;20209;-71
2022/11/17 06:29:15;;;;;;;12.25;10.95;;;;;;;9.72;91.90;93625.72;5078545;28;20196;-70
2022/11/17 06:31:45;;;;;;;13.93;11.70;;;;;;;9.73;91.58;93638.34;5078892;28;20215;-71
2022/11/17 06:34:13;;;;;;;12.55;11.10;;;;;;;9.72;92.01;93657.97;5078181;28;20197;-71
2022/11/17 06:36:41;;;;;;;12.02;10.43;;;;;;;9.69;92.27;93667.78;5078104;28;20197;-71
2022/11/17 06:39:09;;;;;;;10.05;9.05;;;;;;;9.72;92.47;93672.53;5078223;28;20212;-71
2022/11/17 06:41:38;;;;;;;10.68;9.68;;;;;;;9.71;92.73;93687.47;5078117;28;20224;-71
2022/11/17 06:44:08;;;;;;;10.70;9.60;;;;;;;9.73;92.80;93676.88;5077943;28;20193;-71
2022/11/17 06:46:38;;;;;;;11.45;9.43;;;;;;;9.75;92.61;93687.50;5077823;28;20198;-71
2022/11/17 06:49:06;;;;;;;10.13;9.18;;;;;;;9.75;92.61;93685.53;5077416;28;20208;-71
2022/11/17 06:51:33;;;;;;;10.93;9.75;;;;;;;9.79;92.78;93713.88;5095670;28;20207;-71
2022/11/17 06:54:02;;;;;;;12.15;10.95;;;;;;;9.80;92.91;93773.31;5078162;28;20608;-71
2022/11/17 06:56:29;;;;;;;10.00;6.35;;;;;;;9.88;94.23;93754.88;5095598;28;20188;-71
2022/11/17 06:58:58;;;;;;;5.90;5.07;;;;;;;10.00;94.91;93740.81;5094715;28;20212;-71
2022/11/17 07:01:29;;;;;;;5.60;4.30;;;;;;;10.09;93.81;93757.81;5077589;28;20226;-71
2022/11/17 07:03:57;;;;;;;3.50;3.20;;;;;;;10.17;92.18;93749.56;5077458;28;20655;-71
2022/11/17 07:06:26;;;;;;;3.20;2.90;;;;;;;10.23;90.68;93753.56;5077589;28;20204;-71
2022/11/17 07:08:56;;;;;;;3.00;2.25;;;;;;;10.27;88.68;93743.38;5077618;28;20204;-71
2022/11/17 07:11:26;;;;;;;2.42;2.20;;;;;;;10.29;87.77;93736.34;5077893;28;20257;-71
2022/11/17 07:13:54;;;;;;;2.40;2.15;;;;;;;10.30;86.61;93732.41;5077696;28;20200;-71
2022/11/17 07:16:24;;;;;;;2.58;2.20;;;;;;;10.33;85.95;93711.56;5077547;28;20633;-71
2022/11/17 07:18:58;;;;;;;2.17;1.98;;;;;;;10.33;86.17;93698.56;5073665;28;20236;-71
2022/11/17 07:21:26;;;;;;;3.05;1.85;;;;;;;10.33;85.70;93673.75;5074773;28;20216;-71
2022/11/17 07:23:54;;;;;;;2.28;1.92;;;;;;;10.34;85.31;93656.03;5074283;28;20543;-71
2022/11/17 07:26:25;;;;;;;2.50;2.30;;;;;;;10.31;84.77;93637.53;5074158;28;20196;-71
2022/11/17 07:28:55;;;;;;;2.85;2.63;;;;;;;10.29;84.87;93617.84;5074156;28;20200;-70
2022/11/17 07:31:26;;;;;;;2.90;2.70;;;;;;;10.29;83.47;93584.78;5074489;28;20212;-70
2022/11/17 07:33:54;;;;;;;2.50;2.30;;;;;;;10.31;82.80;93584.38;5074199;28;20606;-71
2022/11/17 07:36:23;;;;;;;2.83;1.98;;;;;;;10.31;83.01;93601.72;5074185;28;20189;-71
2022/11/17 07:38:51;;;;;;;2.22;1.70;;;;;;;10.33;82.69;93623.38;5073729;28;20193;-71
2022/11/17 07:41:20;;;;;;;2.78;1.88;;;;;;;10.35;82.88;93613.53;5073888;28;20220;-71
2022/11/17 07:43:48;;;;;;;1.70;1.60;;;;;;;10.36;82.86;93603.31;5074305;28;20204;-71
2022/11/17 07:46:16;;;;;;;1.83;1.73;;;;;;;10.40;82.59;93587.56;5074074;28;20197;-70
2022/11/17 07:48:44;;;;;;;1.83;1.65;;;;;;;10.43;81.93;93580.50;5074116;28;20205;-71
2022/11/17 07:51:16;;;;;;;1.52;1.40;;;;;;;10.46;81.41;93569.50;5074340;28;20197;-71
2022/11/17 07:53:46;;;;;;;1.52;1.40;;;;;;;10.54;80.25;93592.34;5074318;28;20529;-71
2022/11/17 07:56:14;;;;;;;1.50;1.40;;;;;;;10.59;78.82;93605.75;5073888;28;20224;-71
2022/11/17 07:58:43;;;;;;;2.78;2.28;;;;;;;10.66;79.47;93603.03;5074449;28;20514;-71
2022/11/17 08:01:13;;;;;;;1.67;1.58;;;;;;;10.72;79.32;93608.97;5077653;28;20201;-71
2022/11/17 08:03:42;;;;;;;1.77;1.50;;;;;;;10.79;77.67;93603.47;5077604;28;20287;-71
2022/11/17 08:06:10;;;;;;;1.60;1.50;;;;;;;11.04;77.63;93622.84;5077255;28;20650;-71
2022/11/17 08:08:40;;;;;;;1.50;1.40;;;;;;;11.24;77.01;93617.75;5077264;28;20189;-71
2022/11/17 08:11:10;;;;;;;1.08;0.98;;;;;;;11.31;74.79;93623.28;5077975;28;20201;-71
2022/11/17 08:13:39;;;;;;;1.85;1.00;;;;;;;11.35;74.83;93646.13;5077477;28;20216;-70
2022/11/17 08:16:08;;;;;;;1.60;1.50;;;;;;;11.36;75.10;93661.50;5077540;28;20220;-70
2022/11/17 08:18:36;;;;;;;1.10;1.10;;;;;;;11.36;75.15;93646.94;5077008;28;20244;-70
2022/11/17 08:21:07;;;;;;;1.50;1.40;;;;;;;11.31;75.41;93651.66;5077275;28;20204;-70
2022/11/17 08:23:34;;;;;;;1.40;1.30;;;;;;;11.30;75.40;93657.59;5078010;28;20225;-70
2022/11/17 08:26:04;;;;;;;1.55;1.20;;;;;;;11.35;74.10;93659.94;5078205;28;20192;-70
2022/11/17 08:28:33;;;;;;;1.30;1.20;;;;;;;11.56;74.18;93682.06;5076227;28;20212;-70
2022/11/17 08:31:01;;;;;;;1.45;1.30;;;;;;;11.85;72.79;93682.13;5077057;28;20541;-71
2022/11/17 08:33:29;;;;;;;1.23;1.13;;;;;;;12.06;71.39;93666.72;5078071;28;20189;-70
2022/11/17 08:35:58;;;;;;;1.10;1.00;;;;;;;12.27;71.31;93673.00;5077981;28;20196;-70
2022/11/17 08:38:27;;;;;;;1.75;1.65;;;;;;;12.51;69.93;93706.53;5077103;28;20193;-70
2022/11/17 08:40:56;;;;;;;1.50;1.40;;;;;;;12.72;69.20;93684.34;5076904;28;20205;-70
2022/11/17 08:43:26;;;;;;;1.08;0.95;;;;;;;12.83;68.33;93670.47;5077969;28;20209;-71
2022/11/17 08:45:53;;;;;;;1.45;1.35;;;;;;;13.02;68.29;93688.59;5077837;28;20250;-71
2022/11/17 08:48:22;;;;;;;1.65;1.55;;;;;;;13.24;67.26;93683.75;5076472;28;20201;-71
2022/11/17 08:50:50;;;;;;;1.60;1.50;;;;;;;13.42;66.23;93678.91;5076372;28;20205;-70
2022/11/17 08:53:20;;;;;;;1.40;1.30;;;;;;;13.60;65.24;93694.66;5077073;28;20204;-70
2022/11/17 08:55:48;;;;;;;1.55;1.23;;;;;;;13.58;65.10;93681.22;5076929;28;20205;-70
2022/11/17 08:58:16;;;;;;;1.50;1.40;;;;;;;13.46;65.09;93674.13;5076426;28;20194;-71
2022/11/17 09:00:46;;;;;;;1.42;1.20;;;;;;;13.29;64.52;93677.00;5076569;28;20208;-71
2022/11/17 09:03:15;;;;;;;1.38;1.27;;;;;;;13.14;64.95;93671.50;5077454;28;20213;-71
2022/11/17 09:05:45;;;;;;;1.40;1.30;;;;;;;13.02;64.75;93681.06;5077090;28;20177;-71
2022/11/17 09:08:15;;;;;;;1.30;1.20;;;;;;;12.98;65.01;93683.06;5077067;28;20498;-71
2022/11/17 09:10:43;;;;;;;1.25;1.15;;;;;;;13.05;65.18;93685.03;5076560;28;20523;-71
2022/11/17 09:13:14;;;;;;;1.33;1.23;;;;;;;13.08;64.31;93683.44;5076735;28;20197;-70
2022/11/17 09:15:42;;;;;;;1.52;1.42;;;;;;;13.11;64.45;93674.28;5077192;28;20597;-70
2022/11/17 09:18:12;;;;;;;1.33;1.10;;;;;;;13.02;63.71;93664.47;5089315;28;20236;-70
2022/11/17 09:20:40;;;;;;;1.25;1.10;;;;;;;13.03;63.35;93673.53;5079682;28;20208;-71
2022/11/17 09:23:08;;;;;;;1.70;1.20;;;;;;;13.02;63.74;93670.00;5080073;28;20249;-71
2022/11/17 09:25:36;;;;;;;1.48;1.35;;;;;;;12.98;64.07;93668.44;5097025;28;20205;-71
2022/11/17 09:28:04;;;;;;;1.80;1.70;;;;;;;12.96;64.28;93663.31;5097490;28;20241;-71
2022/11/17 09:30:33;;;;;;;1.98;1.80;;;;;;;12.95;64.17;93658.16;5096929;28;20193;-71
2022/11/17 09:33:01;;;;;;;1.77;1.60;;;;;;;13.01;64.46;93673.97;5097098;28;20188;-71
2022/11/17 09:35:29;;;;;;;1.88;1.35;;;;;;;13.05;63.54;93668.41;5097013;28;20196;-71
2022/11/17 09:37:59;;;;;;;1.48;1.20;;;;;;;13.05;63.49;93671.19;5096782;28;20598;-71
2022/11/17 09:40:28;;;;;;;1.85;1.30;;;;;;;13.03;63.87;93673.53;5096710;28;20197;-71
2022/11/17 09:42:58;;;;;;;1.50;1.27;;;;;;;13.03;63.68;93665.25;5078815;28;20223;-71
2022/11/17 09:45:30;;;;;;;1.60;1.50;;;;;;;13.05;64.07;93665.63;5096961;28;20189;-70
2022/11/17 09:48:02;;;;;;;1.40;1.30;;;;;;;13.07;64.30;93665.22;5096883;28;20196;-71
2022/11/17 09:50:36;;;;;;;1.50;1.40;;;;;;;13.09;64.32;93671.16;5078735;28;20200;-70
2022/11/17 09:53:09;;;;;;;1.52;1.30;;;;;;;13.13;64.19;93669.16;5096938;28;20195;-71
2022/11/17 09:55:37;;;;;;;1.95;1.40;;;;;;;13.14;64.34;93676.25;5096672;28;20211;-71
2022/11/17 09:58:13;;;;;;;1.35;1.27;;;;;;;13.13;64.23;93671.94;5079005;28;20205;-71
2022/11/17 10:00:44;;;;;;;1.50;1.40;;;;;;;13.11;64.53;93666.00;5078784;28;20225;-70
2022/11/17 10:03:17;;;;;;;1.73;1.63;;;;;;;13.10;64.68;93656.13;5078892;28;20216;-70
2022/11/17 10:05:50;;;;;;;2.10;1.40;;;;;;;13.09;64.51;93660.88;5096829;28;20185;-70
2022/11/17 10:08:23;;;;;;;1.83;1.40;;;;;;;13.08;64.63;93666.81;5096421;28;20200;-70
2022/11/17 10:10:52;;;;;;;1.55;1.10;;;;;;;13.08;64.40;93661.28;5078578;28;20628;-71
2022/11/17 10:13:24;;;;;;;1.42;1.33;;;;;;;13.10;65.05;93667.97;5078823;28;20222;-71
2022/11/17 10:15:53;;;;;;;1.63;1.52;;;;;;;13.10;65.48;93664.44;5078657;28;20208;-73
2022/11/17 10:18:20;;;;;;;1.80;1.10;;;;;;;13.10;65.48;93656.13;5095812;28;20236;-71
2022/11/17 10:20:51;;;;;;;1.50;1.30;;;;;;;13.09;65.78;93658.09;5095915;28;20210;-71
2022/11/17 10:23:20;;;;;;;1.35;1.30;;;;;;;13.10;66.43;93662.44;5077440;28;20220;-70
2022/11/17 10:25:53;;;;;;;1.60;1.50;;;;;;;13.11;65.77;93671.53;5078390;28;20200;-70
2022/11/17 10:28:26;;;;;;;1.00;0.90;;;;;;;13.10;65.68;93656.13;5095795;28;20218;-70
2022/11/17 10:30:56;;;;;;;2.03;1.23;;;;;;;13.10;66.14;93647.81;5077867;28;20213;-70
2022/11/17 10:33:39;;;;;;;1.30;1.20;;;;;;;13.13;66.66;93656.09;5096403;28;20191;-70
2022/11/17 10:36:18;;;;;;;2.38;1.17;;;;;;;13.16;67.04;93638.69;5078586;28;20196;-70
2022/11/17 10:38:48;;;;;;;3.15;1.20;;;;;;;13.26;67.04;93634.31;5095942;28;20192;-70
2022/11/17 10:41:17;;;;;;;1.80;1.20;;;;;;;13.31;67.23;93636.66;5095860;28;20257;-70
2022/11/17 10:43:56;;;;;;;1.75;1.17;;;;;;;13.57;67.08;93618.66;5095489;28;20204;-70
2022/11/17 10:46:24;;;;;;;1.40;1.30;;;;;;;13.91;66.74;93640.97;5077154;28;20208;-70
2022/11/17 10:48:59;;;;;;;1.60;1.45;;;;;;;14.21;65.68;93647.84;5095589;28;20299;-70
2022/11/17 10:51:32;;;;;;;1.50;1.30;;;;;;;14.42;64.49;93652.41;5077701;28;20217;-70
2022/11/17 10:54:05;;;;;;;1.30;1.20;;;;;;;14.61;63.94;93657.38;5078172;28;20651;-70
2022/11/17 10:56:38;;;;;;;1.65;1.20;;;;;;;14.59;63.61;93654.22;5077871;28;20200;-70
2022/11/17 10:59:14;;;;;;;1.10;1.10;;;;;;;14.57;63.68;93658.63;5078423;28;20205;-70
2022/11/17 11:01:44;;;;;;;3.47;1.42;;;;;;;14.45;64.11;93655.13;5095908;28;20184;-71
2022/11/17 11:04:29;;;;;;;1.48;1.38;;;;;;;14.35;64.35;93669.91;5095489;28;20205;-71
2022/11/17 11:07:19;;;;;;;1.75;1.65;;;;;;;14.19;64.64;93655.78;5093891;28;20244;-70
2022/11/17 11:09:58;;;;;;;1.90;1.80;;;;;;;14.05;65.24;93651.16;5077498;28;20207;-70
2022/11/17 11:12:33;;;;;;;2.28;1.73;;;;;;;13.94;66.23;93662.34;5095517;28;20207;-70
2022/11/17 11:15:02;;;;;;;3.42;1.73;;;;;;;14.05;66.35;93661.44;5095418;28;20220;-70
2022/11/17 11:17:33;;;;;;;2.20;2.00;;;;;;;14.18;66.55;93652.22;5074193;28;20294;-71
2022/11/17 11:19:59;;;;;;;1.40;1.30;;;;;;;14.22;65.30;93657.72;5074245;28;20196;-71
2022/11/17 11:22:34;;;;;;;1.90;1.30;;;;;;;14.03;65.61;93661.88;5074302;28;20205;-70
2022/11/17 11:25:10;;;;;;;1.60;1.50;;;;;;;14.03;65.97;93659.09;5074211;28;20295;-70
2022/11/17 11:27:56;;;;;;;1.40;1.30;;;;;;;13.96;65.67;93664.69;5074814;28;20193;-70
2022/11/17 11:30:24;;;;;;;1.52;1.35;;;;;;;13.91;66.16;93663.16;5073788;28;20194;-70
2022/11/17 11:33:01;;;;;;;1.98;1.40;;;;;;;13.87;66.63;93667.94;5075078;28;20185;-70
2022/11/17 11:35:39;;;;;;;1.60;1.50;;;;;;;13.85;66.65;93672.31;5078267;28;20200;-70
2022/11/17 11:38:30;;;;;;;1.30;1.20;;;;;;;13.93;66.87;93663.50;5078249;28;20200;-70
2022/11/17 11:41:07;;;;;;;2.13;1.70;;;;;;;14.02;67.11;93665.84;5068096;28;20208;-70
2022/11/17 11:43:44;;;;;;;1.50;1.40;;;;;;;14.16;66.72;93665.72;5078123;28;20271;-70
2022/11/17 11:46:17;;;;;;;1.40;1.30;;;;;;;14.20;66.16;93676.78;5077833;28;20211;-70
2022/11/17 11:48:46;;;;;;;2.03;1.42;;;;;;;14.26;65.93;93664.03;5078006;28;20202;-70
2022/11/17 11:51:15;;;;;;;1.25;1.15;;;;;;;14.29;65.59;93663.22;5078937;28;20208;-70
2022/11/17 11:53:51;;;;;;;2.20;1.52;;;;;;;14.29;65.86;93654.88;5078850;28;20212;-70
2022/11/17 11:56:22;;;;;;;1.80;1.45;;;;;;;14.26;65.81;93666.00;5078046;28;20196;-70
2022/11/17 11:58:55;;;;;;;1.42;1.33;;;;;;;14.26;66.28;93660.47;5078849;28;20247;-70
2022/11/17 12:01:24;;;;;;;1.38;1.27;;;;;;;14.24;66.26;93660.88;5078346;28;20203;-71
2022/11/17 12:03:58;;;;;;;2.15;1.40;;;;;;;14.14;66.61;93670.09;5078302;28;20220;-70
2022/11/17 12:06:44;;;;;;;2.38;1.65;;;;;;;14.07;67.54;93662.63;5077887;28;20199;-70
2022/11/17 12:09:44;;;;;;;2.58;1.48;;;;;;;13.99;68.11;93668.63;5078635;28;20243;-70
2022/11/17 12:12:20;;;;;;;1.92;1.70;;;;;;;13.98;68.46;93670.63;5068932;28;20212;-70
2022/11/17 12:15:09;;;;;;;3.13;1.80;;;;;;;14.08;68.31;93674.50;5077596;28;20209;-70
2022/11/17 12:17:38;;;;;;;1.83;1.73;;;;;;;14.04;68.39;93662.66;5077745;28;20229;-70